Time;durP1;ratioP1;P1;durP2;ratioP2;P2;SDS_P1;SDS_P2;PMS_P1;PMS_P2;Temp;Humidity;BMP_temperature;BMP_pressure;BME280_temperature;BME280_humidity;BME280_pressure;Samples;Min_cycle;Max_cycle;Signal;HPM_P1;HPM_P2
2023/06/04 00:00:43;;;;;;;4.35;2.40;;;;;;;12.99;59.08;102041.25;5008687;28;20033;-85
2023/06/04 00:03:08;;;;;;;5.05;1.92;;;;;;;13.00;59.27;102042.94;5005797;28;20387;-85
2023/06/04 00:05:33;;;;;;;4.15;2.17;;;;;;;12.95;59.55;102040.59;4997933;28;20022;-86
2023/06/04 00:07:59;;;;;;;9.10;2.55;;;;;;;12.96;59.65;102036.16;5000682;28;20120;-85
2023/06/04 00:10:25;;;;;;;3.95;1.90;;;;;;;12.95;59.74;102039.75;4989583;28;20045;-85
2023/06/04 00:12:50;;;;;;;5.60;2.08;;;;;;;12.96;60.06;102037.00;4987343;28;20049;-83
2023/06/04 00:15:16;;;;;;;5.03;2.05;;;;;;;12.94;60.40;102033.63;4989125;28;20026;-78
2023/06/04 00:17:42;;;;;;;7.07;2.30;;;;;;;12.92;60.64;102030.25;5005409;28;20030;-78
2023/06/04 00:20:08;;;;;;;5.95;2.45;;;;;;;12.92;60.57;102030.25;5007007;28;20034;-77
2023/06/04 00:22:33;;;;;;;4.13;2.03;;;;;;;12.92;60.71;102030.25;4999431;28;20026;-77
2023/06/04 00:24:59;;;;;;;5.70;2.38;;;;;;;12.88;60.71;102027.91;4997032;28;20040;-77
2023/06/04 00:27:24;;;;;;;3.47;2.25;;;;;;;12.88;61.05;102022.63;5009519;28;20026;-77
2023/06/04 00:29:50;;;;;;;4.63;2.28;;;;;;;12.85;61.08;102029.78;5009551;28;20121;-76
2023/06/04 00:32:19;;;;;;;5.95;2.50;;;;;;;12.86;61.42;102038.56;5008741;28;20029;-77
2023/06/04 00:34:52;;;;;;;4.50;2.17;;;;;;;12.85;61.60;102031.59;5007906;28;20026;-77
2023/06/04 00:37:19;;;;;;;;;;;;;;;12.93;58.82;102037.22;5009028;28;20087;-77
2023/06/04 00:39:45;;;;;;;4.00;2.47;;;;;;;12.77;61.86;102025.91;5001924;28;19952;-77
2023/06/04 00:42:10;;;;;;;5.53;2.33;;;;;;;12.74;62.24;102034.03;4988440;28;20445;-77
2023/06/04 00:44:36;;;;;;;4.45;2.25;;;;;;;12.70;62.68;102030.75;4989828;28;20051;-77
2023/06/04 00:47:02;;;;;;;6.82;2.95;;;;;;;12.66;62.85;102025.78;5004790;28;20085;-84
2023/06/04 00:49:27;;;;;;;5.70;2.40;;;;;;;12.60;63.21;102024.38;5009140;28;20539;-84
2023/06/04 00:51:52;;;;;;;5.53;2.33;;;;;;;12.62;63.14;102029.56;5009459;28;20230;-84
2023/06/04 00:54:20;;;;;;;5.53;2.30;;;;;;;12.60;63.16;102026.16;5008275;28;20030;-76
2023/06/04 00:56:51;;;;;;;4.60;2.40;;;;;;;12.52;63.49;102019.59;5012963;28;20025;-86
2023/06/04 00:59:16;;;;;;;3.78;2.50;;;;;;;12.54;63.81;102020.34;5005022;28;20033;-86
2023/06/04 01:01:58;;;;;;;5.40;2.10;;;;;;;12.55;63.49;102019.38;5010325;28;20034;-85
2023/06/04 01:04:43;;;;;;;4.50;2.47;;;;;;;12.52;63.69;102030.16;5010679;28;20065;-85
2023/06/04 01:07:10;;;;;;;3.40;2.20;;;;;;;12.44;64.61;102023.66;5010000;28;20030;-85
2023/06/04 01:09:36;;;;;;;8.25;2.50;;;;;;;12.40;64.88;102033.53;5009645;28;20033;-85
2023/06/04 01:12:08;;;;;;;4.35;2.40;;;;;;;12.41;65.14;102035.25;5011766;28;20085;-85
2023/06/04 01:14:33;;;;;;;5.50;2.50;;;;;;;12.34;65.40;102033.91;5008854;28;20045;-85
2023/06/04 01:17:11;;;;;;;8.63;2.75;;;;;;;12.35;65.35;102030.34;5008663;28;20040;-84
2023/06/04 01:19:51;;;;;;;5.35;2.28;;;;;;;12.32;65.02;102038.44;5012104;28;20037;-85
2023/06/04 01:22:47;;;;;;;5.28;2.40;;;;;;;12.28;65.35;102038.72;5012127;28;20030;-85
2023/06/04 01:25:20;;;;;;;6.07;2.08;;;;;;;12.22;65.85;102039.97;5010454;28;20046;-85
2023/06/04 01:27:49;;;;;;;5.23;2.57;;;;;;;12.19;66.66;102040.16;5030563;28;20025;-75
2023/06/04 01:30:16;;;;;;;5.90;2.53;;;;;;;12.12;66.84;102038.84;5031089;28;20307;-78
2023/06/04 01:32:41;;;;;;;8.95;2.45;;;;;;;12.11;67.09;102037.16;5020851;28;20026;-84
2023/06/04 01:35:11;;;;;;;5.25;2.35;;;;;;;12.10;67.30;102038.09;4999817;28;20085;-84
2023/06/04 01:37:37;;;;;;;3.60;2.30;;;;;;;12.09;67.11;102039.88;5010591;28;20034;-84
2023/06/04 01:40:05;;;;;;;5.28;2.50;;;;;;;12.05;67.33;102032.25;5009378;28;20394;-84
2023/06/04 01:42:30;;;;;;;4.65;2.30;;;;;;;12.05;67.46;102032.25;5010254;28;20112;-75
2023/06/04 01:44:55;;;;;;;5.55;2.67;;;;;;;11.99;67.51;102038.72;5011412;28;20053;-76
2023/06/04 01:47:22;;;;;;;6.40;2.30;;;;;;;12.02;67.82;102037.72;5010951;28;20018;-76
2023/06/04 01:49:47;;;;;;;3.70;2.28;;;;;;;11.98;67.85;102036.19;5006232;28;20088;-75
2023/06/04 01:52:13;;;;;;;3.78;2.35;;;;;;;11.99;68.09;102027.31;4992829;28;20022;-84
2023/06/04 01:54:40;;;;;;;4.90;2.20;;;;;;;11.89;68.54;102033.16;5011571;28;20387;-84
2023/06/04 01:57:06;;;;;;;7.32;2.53;;;;;;;11.85;68.78;102033.44;5024629;28;20415;-76
2023/06/04 01:59:33;;;;;;;5.68;2.28;;;;;;;11.82;69.04;102033.63;5009965;28;20037;-84
2023/06/04 02:02:02;;;;;;;3.78;2.30;;;;;;;11.72;69.57;102040.38;5011335;28;20475;-85
2023/06/04 02:04:28;;;;;;;6.45;2.42;;;;;;;11.68;69.42;102038.84;5008758;28;20038;-77
2023/06/04 02:06:55;;;;;;;5.38;2.30;;;;;;;11.69;69.70;102036.13;4999484;28;20031;-85
2023/06/04 02:09:21;;;;;;;5.43;2.25;;;;;;;11.65;69.72;102039.03;5003509;28;20038;-85
2023/06/04 02:11:46;;;;;;;6.50;2.28;;;;;;;11.58;70.38;102035.91;5008734;28;20471;-86
2023/06/04 02:14:11;;;;;;;7.88;2.50;;;;;;;11.57;70.13;102034.19;5009757;28;20095;-86
2023/06/04 02:16:37;;;;;;;4.07;2.75;;;;;;;11.58;70.28;102033.25;5010112;28;20022;-86
2023/06/04 02:19:03;;;;;;;4.13;2.55;;;;;;;11.57;70.98;102032.41;5009849;28;20026;-77
2023/06/04 02:21:28;;;;;;;4.72;2.42;;;;;;;11.62;70.46;102032.16;5011048;28;20033;-76
2023/06/04 02:23:53;;;;;;;4.43;2.53;;;;;;;11.59;70.27;102029.69;5002605;28;20026;-85
2023/06/04 02:26:20;;;;;;;3.88;2.47;;;;;;;11.56;70.43;102029.88;5002485;28;20357;-76
2023/06/04 02:28:45;;;;;;;9.70;2.67;;;;;;;11.49;71.03;102026.75;5011538;28;20385;-85
2023/06/04 02:31:11;;;;;;;3.63;2.25;;;;;;;11.43;70.76;102028.91;5010139;28;20030;-76
2023/06/04 02:33:37;;;;;;;3.83;2.65;;;;;;;11.41;71.24;102033.41;5009736;28;20030;-76
2023/06/04 02:36:02;;;;;;;2.95;2.13;;;;;;;11.38;72.07;102037.09;5010993;28;20021;-76
2023/06/04 02:38:28;;;;;;;6.40;2.30;;;;;;;11.28;72.41;102039.41;5009274;28;20060;-76
2023/06/04 02:40:53;;;;;;;4.97;2.65;;;;;;;11.33;72.13;102040.94;5007170;28;20037;-84
2023/06/04 02:43:19;;;;;;;4.28;2.22;;;;;;;11.25;72.27;102036.94;5008337;28;20095;-85
2023/06/04 02:45:44;;;;;;;8.27;2.40;;;;;;;11.29;72.67;102038.47;5010702;28;20034;-76
2023/06/04 02:48:10;;;;;;;3.25;2.60;;;;;;;11.18;72.78;102035.59;5008507;28;20040;-76
2023/06/04 02:50:35;;;;;;;5.28;2.53;;;;;;;11.12;72.57;102035.94;5009757;28;20029;-76
2023/06/04 02:53:01;;;;;;;5.38;2.47;;;;;;;11.14;73.11;102038.47;5025049;28;20033;-85
2023/06/04 02:55:26;;;;;;;4.85;2.50;;;;;;;11.08;72.98;102034.41;5016899;28;20028;-84
2023/06/04 02:57:52;;;;;;;3.30;2.40;;;;;;;11.04;73.37;102040.81;5015940;28;20030;-85
2023/06/04 03:00:17;;;;;;;7.97;2.97;;;;;;;11.05;73.43;102039.84;5000084;28;20101;-84
2023/06/04 03:02:47;;;;;;;2.83;2.22;;;;;;;11.05;74.04;102042.50;5009791;28;20332;-85
2023/06/04 03:05:14;;;;;;;4.88;2.60;;;;;;;10.95;73.65;102041.31;5008155;28;20363;-84
2023/06/04 03:07:42;;;;;;;8.30;2.60;;;;;;;11.00;73.72;102041.91;5009552;28;20029;-84
2023/06/04 03:10:08;;;;;;;3.83;2.70;;;;;;;10.94;74.24;102037.00;5008197;28;20026;-84
2023/06/04 03:12:34;;;;;;;4.07;2.67;;;;;;;10.91;74.63;102038.03;5008644;28;20064;-76
2023/06/04 03:15:04;;;;;;;4.47;2.47;;;;;;;10.91;74.63;102039.81;5023166;28;20053;-76
2023/06/04 03:17:31;;;;;;;8.85;2.67;;;;;;;10.90;74.28;102035.47;5005382;28;20038;-84
2023/06/04 03:19:57;;;;;;;4.82;2.25;;;;;;;10.89;74.37;102037.25;5009270;28;20026;-76
2023/06/04 03:22:22;;;;;;;4.63;2.33;;;;;;;10.89;74.41;102033.78;5007996;28;20022;-84
2023/06/04 03:24:47;;;;;;;6.63;2.45;;;;;;;10.86;74.01;102033.94;5009603;28;20030;-76
2023/06/04 03:27:13;;;;;;;3.47;2.55;;;;;;;10.80;73.90;102031.63;5026401;28;20041;-76
2023/06/04 03:29:38;;;;;;;5.43;2.75;;;;;;;10.75;74.49;102026.63;5029711;28;20021;-76
2023/06/04 03:32:04;;;;;;;5.32;2.83;;;;;;;10.73;74.28;102028.50;5029314;28;20494;-83
2023/06/04 03:34:31;;;;;;;4.50;2.60;;;;;;;10.65;74.86;102025.44;5017848;28;20792;-76
2023/06/04 03:37:01;;;;;;;4.95;3.00;;;;;;;10.67;75.03;102037.59;5008922;28;20080;-76
2023/06/04 03:39:27;;;;;;;3.22;2.55;;;;;;;10.64;74.90;102035.13;5009308;28;20026;-76
2023/06/04 03:41:53;;;;;;;4.68;2.88;;;;;;;10.58;75.36;102035.47;5009344;28;20032;-76
2023/06/04 03:44:19;;;;;;;3.22;2.50;;;;;;;10.55;75.63;102035.63;5009027;28;20056;-76
2023/06/04 03:46:45;;;;;;;4.32;2.40;;;;;;;10.59;76.43;102042.44;5010455;28;20520;-76
2023/06/04 03:49:11;;;;;;;5.80;2.75;;;;;;;10.55;76.65;102040.91;5008498;28;20030;-76
2023/06/04 03:51:41;;;;;;;5.55;2.70;;;;;;;10.56;76.53;102042.59;5007982;28;20390;-84
2023/06/04 03:54:06;;;;;;;5.03;2.85;;;;;;;10.55;75.77;102040.91;5005875;28;20032;-84
2023/06/04 03:56:32;;;;;;;3.63;2.40;;;;;;;10.64;76.42;102045.66;4999946;28;20026;-84
2023/06/04 03:58:57;;;;;;;6.68;2.80;;;;;;;10.57;75.31;102039.03;5013356;28;20025;-84
2023/06/04 04:01:23;;;;;;;3.78;2.80;;;;;;;10.91;75.22;102037.16;5009616;28;20053;-84
2023/06/04 04:03:50;;;;;;;6.88;2.60;;;;;;;11.55;73.24;102041.34;5007311;28;20029;-76
2023/06/04 04:06:16;;;;;;;4.15;2.38;;;;;;;12.49;69.49;102037.41;5008401;28;20022;-75
2023/06/04 04:08:44;;;;;;;4.35;2.28;;;;;;;13.10;65.95;102039.59;5009105;28;20505;-83
2023/06/04 04:11:13;;;;;;;7.47;2.40;;;;;;;14.40;62.18;102028.91;5006712;28;20099;-75
2023/06/04 04:13:39;;;;;;;6.05;2.42;;;;;;;15.20;59.64;102026.66;4990995;28;20120;-75
2023/06/04 04:16:04;;;;;;;5.38;1.98;;;;;;;15.78;56.30;102026.75;5007247;28;20109;-83
2023/06/04 04:18:34;;;;;;;2.85;1.92;;;;;;;16.38;55.95;102028.19;5008092;28;20033;-76
2023/06/04 04:21:04;;;;;;;4.68;2.25;;;;;;;16.15;54.27;102025.56;5008507;28;20079;-76
2023/06/04 04:23:32;;;;;;;5.00;2.35;;;;;;;15.68;54.67;102034.56;5009677;28;20080;-76
2023/06/04 04:26:02;;;;;;;6.70;2.30;;;;;;;14.93;57.31;102036.66;5013999;28;20469;-76
2023/06/04 04:28:28;;;;;;;3.83;2.35;;;;;;;14.09;58.74;102040.84;5013172;28;20115;-84
2023/06/04 04:30:57;;;;;;;3.58;2.10;;;;;;;13.54;60.75;102035.81;5008338;28;20033;-76
2023/06/04 04:33:24;;;;;;;6.13;2.40;;;;;;;13.37;62.01;102041.41;5006734;28;20544;-76
2023/06/04 04:35:50;;;;;;;3.78;2.50;;;;;;;13.10;62.52;102039.59;5013427;28;20401;-84
2023/06/04 04:38:17;;;;;;;4.03;2.40;;;;;;;12.99;63.79;102036.81;5012859;28;20026;-83
2023/06/04 04:40:42;;;;;;;6.90;2.20;;;;;;;12.80;64.77;102033.66;5011756;28;20398;-84
2023/06/04 04:43:11;;;;;;;5.07;2.65;;;;;;;12.61;65.74;102049.81;5010784;28;20026;-76
2023/06/04 04:45:37;;;;;;;3.97;2.70;;;;;;;12.47;65.67;102036.66;5025005;28;20022;-76
2023/06/04 04:48:02;;;;;;;7.20;2.53;;;;;;;12.49;66.71;102043.53;4996540;28;20084;-76
2023/06/04 04:50:27;;;;;;;5.55;2.38;;;;;;;12.31;66.53;102039.38;5012527;28;20393;-84
2023/06/04 04:52:56;;;;;;;4.53;2.80;;;;;;;12.20;67.22;102052.41;5012347;28;20111;-76
2023/06/04 04:55:21;;;;;;;4.53;2.70;;;;;;;12.09;67.74;102047.78;5018336;28;20033;-84
2023/06/04 04:57:46;;;;;;;3.40;2.92;;;;;;;12.11;68.03;102048.56;5033741;28;20025;-75
2023/06/04 05:00:14;;;;;;;6.32;2.67;;;;;;;12.08;68.36;102048.75;5017306;28;20033;-76
2023/06/04 05:02:39;;;;;;;4.82;2.63;;;;;;;12.05;68.11;102048.94;5005411;28;20034;-76
2023/06/04 05:05:05;;;;;;;6.95;2.80;;;;;;;12.06;68.97;102049.78;5008271;28;20034;-82
2023/06/04 05:07:34;;;;;;;6.47;2.90;;;;;;;12.10;69.86;102049.50;4993193;28;20077;-84
2023/06/04 05:10:03;;;;;;;7.70;3.53;;;;;;;12.00;68.94;102052.75;4999700;28;20041;-76
2023/06/04 05:12:31;;;;;;;5.30;3.08;;;;;;;11.99;69.06;102054.56;5003340;28;20034;-76
2023/06/04 05:14:57;;;;;;;7.47;2.92;;;;;;;12.02;68.78;102058.81;5027602;28;20049;-83
2023/06/04 05:17:29;;;;;;;4.40;2.90;;;;;;;11.93;69.30;102055.78;5027569;28;20025;-84
2023/06/04 05:20:04;;;;;;;5.53;2.80;;;;;;;12.02;69.40;102058.81;5012025;28;20056;-84
2023/06/04 05:22:32;;;;;;;7.88;2.85;;;;;;;11.99;69.40;102065.09;5009894;28;20052;-84
2023/06/04 05:24:59;;;;;;;3.72;2.45;;;;;;;12.02;69.81;102058.81;5010997;28;20376;-84
2023/06/04 05:27:25;;;;;;;8.23;3.10;;;;;;;12.05;69.76;102053.34;5010498;28;20033;-76
2023/06/04 05:29:51;;;;;;;5.18;3.20;;;;;;;12.10;70.16;102061.84;4995144;28;20121;-77
2023/06/04 05:32:16;;;;;;;5.65;3.20;;;;;;;12.15;69.04;102059.75;4992622;28;20563;-84
2023/06/04 05:34:42;;;;;;;6.75;3.13;;;;;;;12.21;69.50;102049.69;5013868;28;20021;-77
2023/06/04 05:37:09;;;;;;;5.03;2.78;;;;;;;12.27;69.04;102053.72;5026213;28;20076;-84
2023/06/04 05:39:35;;;;;;;7.72;2.70;;;;;;;12.32;69.34;102043.72;5007271;28;20478;-77
2023/06/04 05:42:01;;;;;;;5.38;2.75;;;;;;;12.36;68.42;102053.16;5026557;28;20022;-84
2023/06/04 05:44:26;;;;;;;6.13;2.80;;;;;;;12.40;67.36;102057.28;5002769;28;20050;-77
2023/06/04 05:46:52;;;;;;;8.60;2.83;;;;;;;12.45;68.32;102054.38;4991416;28;20483;-85
2023/06/04 05:49:17;;;;;;;3.58;2.40;;;;;;;12.49;67.12;102058.53;4991869;28;20057;-75
2023/06/04 05:51:42;;;;;;;9.40;3.35;;;;;;;12.54;67.94;102051.16;5010428;28;20502;-82
2023/06/04 05:54:08;;;;;;;4.65;3.03;;;;;;;12.61;67.62;102057.75;4992650;28;20038;-83
2023/06/04 05:56:35;;;;;;;8.73;3.33;;;;;;;12.71;67.34;102064.13;5043575;28;20537;-75
2023/06/04 05:59:00;;;;;;;5.22;3.10;;;;;;;12.77;67.23;102054.97;5030983;28;20029;-76
2023/06/04 06:01:25;;;;;;;5.90;3.10;;;;;;;12.84;67.03;102051.03;5015730;28;20109;-84
2023/06/04 06:03:52;;;;;;;8.65;2.92;;;;;;;12.89;65.63;102059.50;5011717;28;20029;-83
2023/06/04 06:06:18;;;;;;;7.72;2.97;;;;;;;12.92;65.06;102056.66;5011890;28;20077;-75
2023/06/04 06:08:43;;;;;;;6.20;3.17;;;;;;;13.02;66.41;102063.03;5012543;28;20072;-76
2023/06/04 06:11:09;;;;;;;4.57;2.92;;;;;;;13.08;65.51;102067.06;5011251;28;20026;-83
2023/06/04 06:13:34;;;;;;;5.18;2.78;;;;;;;13.09;64.13;102063.47;5011738;28;20482;-82
2023/06/04 06:16:04;;;;;;;4.78;2.92;;;;;;;13.11;63.75;102067.72;5010078;28;20029;-77
2023/06/04 06:18:30;;;;;;;4.40;3.05;;;;;;;13.26;64.34;102067.72;4995779;28;20053;-77
2023/06/04 06:20:55;;;;;;;7.53;3.15;;;;;;;13.34;63.81;102070.69;4991716;28;20383;-78
2023/06/04 06:23:22;;;;;;;5.32;3.10;;;;;;;13.41;63.57;102067.53;4991251;28;20021;-78
2023/06/04 06:25:51;;;;;;;6.20;3.10;;;;;;;13.52;64.65;102064.16;5006480;28;20536;-77
2023/06/04 06:28:19;;;;;;;5.10;2.92;;;;;;;13.58;62.45;102066.41;5029156;28;20131;-77
2023/06/04 06:30:44;;;;;;;6.72;2.88;;;;;;;13.64;61.09;102068.66;5030779;28;20028;-78
2023/06/04 06:33:10;;;;;;;3.22;2.70;;;;;;;13.71;61.06;102075.22;5018190;28;20034;-77
2023/06/04 06:35:35;;;;;;;5.05;2.90;;;;;;;13.79;61.99;102070.25;5010077;28;20026;-77
2023/06/04 06:38:01;;;;;;;7.78;2.72;;;;;;;13.86;63.47;102073.31;5007212;28;20022;-81
2023/06/04 06:40:26;;;;;;;4.75;3.05;;;;;;;13.97;63.38;102080.53;5009608;28;20672;-82
2023/06/04 06:42:51;;;;;;;5.13;2.78;;;;;;;13.98;63.03;102076.91;5007916;28;20106;-75
2023/06/04 06:45:18;;;;;;;5.28;3.30;;;;;;;14.07;64.02;102082.47;5009490;28;20129;-75
2023/06/04 06:47:44;;;;;;;6.53;3.50;;;;;;;14.12;62.59;102076.84;5008835;28;20375;-81
2023/06/04 06:50:10;;;;;;;6.03;3.47;;;;;;;14.23;62.55;102079.59;5009447;28;20155;-80
2023/06/04 06:52:36;;;;;;;5.22;3.03;;;;;;;14.35;62.42;102080.53;5010517;28;20053;-74
2023/06/04 06:55:03;;;;;;;6.15;2.92;;;;;;;14.51;58.66;102075.03;4996068;28;20490;-73
2023/06/04 06:57:28;;;;;;;6.25;2.90;;;;;;;14.56;58.34;102080.84;5012809;28;20050;-73
2023/06/04 06:59:54;;;;;;;8.68;3.13;;;;;;;14.71;58.64;102085.03;5010044;28;20113;-73
2023/06/04 07:02:19;;;;;;;5.30;3.08;;;;;;;14.80;59.64;102084.38;5008789;28;20521;-80
2023/06/04 07:04:45;;;;;;;6.43;3.10;;;;;;;14.93;59.53;102087.00;5009837;28;20044;-80
2023/06/04 07:07:10;;;;;;;9.32;3.05;;;;;;;15.07;58.08;102080.69;5004463;28;20037;-81
2023/06/04 07:09:37;;;;;;;5.68;2.70;;;;;;;15.32;56.30;102092.03;5008078;28;20482;-80
2023/06/04 07:12:03;;;;;;;4.20;3.00;;;;;;;15.62;55.85;102083.66;5007267;28;20038;-73
2023/06/04 07:14:28;;;;;;;6.80;2.70;;;;;;;15.88;54.31;102089.59;5010418;28;20092;-73
2023/06/04 07:16:53;;;;;;;4.30;2.75;;;;;;;16.16;53.77;102088.34;5011032;28;20037;-80
2023/06/04 07:19:19;;;;;;;4.35;2.72;;;;;;;16.42;51.75;102085.47;5007562;28;20450;-79
2023/06/04 07:21:44;;;;;;;7.75;2.90;;;;;;;16.77;50.73;102088.81;5006472;28;20037;-80
2023/06/04 07:24:10;;;;;;;6.18;2.53;;;;;;;16.99;48.10;102089.75;5006813;28;20029;-81
2023/06/04 07:26:35;;;;;;;5.63;2.70;;;;;;;17.22;47.28;102083.44;5017925;28;20411;-74
2023/06/04 07:29:00;;;;;;;6.63;2.58;;;;;;;17.52;47.24;102086.19;5005191;28;20498;-75
2023/06/04 07:31:26;;;;;;;4.18;2.63;;;;;;;17.77;47.21;102068.19;5006773;28;20030;-74
2023/06/04 07:33:51;;;;;;;6.50;2.78;;;;;;;17.95;45.45;102077.25;5008965;28;20026;-76
2023/06/04 07:36:16;;;;;;;5.15;2.40;;;;;;;18.14;45.09;102080.06;5004189;28;20091;-77
2023/06/04 07:38:42;;;;;;;4.15;2.38;;;;;;;18.10;44.49;102086.63;5005469;28;20771;-76
2023/06/04 07:41:08;;;;;;;3.83;2.70;;;;;;;18.29;44.53;102091.19;5006322;28;20144;-77
2023/06/04 07:43:37;;;;;;;4.68;2.50;;;;;;;18.59;44.37;102079.69;5006844;28;20133;-78
2023/06/04 07:46:06;;;;;;;5.28;2.60;;;;;;;18.92;42.92;102077.69;5002312;28;20105;-77
2023/06/04 07:48:31;;;;;;;3.40;2.30;;;;;;;19.29;42.42;102076.06;5006906;28;20030;-78
2023/06/04 07:51:01;;;;;;;5.38;3.20;;;;;;;19.44;41.06;102075.63;5007420;28;20022;-78
2023/06/04 07:53:27;;;;;;;3.92;2.80;;;;;;;19.35;40.32;102074.66;5007274;28;20513;-74
2023/06/04 07:55:53;;;;;;;6.43;3.92;;;;;;;19.67;40.72;102080.56;5019265;28;20029;-77
2023/06/04 07:58:20;;;;;;;6.40;2.90;;;;;;;19.81;40.67;102081.09;5015541;28;20040;-78
2023/06/04 08:00:46;;;;;;;5.13;2.50;;;;;;;19.85;39.27;102078.00;5009518;28;20112;-79
2023/06/04 08:03:11;;;;;;;7.57;2.55;;;;;;;20.19;40.13;102080.16;5009522;28;20439;-79
2023/06/04 08:05:38;;;;;;;3.13;2.33;;;;;;;20.38;39.53;102079.22;5004648;28;20037;-79
2023/06/04 08:08:04;;;;;;;8.15;2.58;;;;;;;20.51;37.85;102080.63;5005545;28;20390;-78
2023/06/04 08:10:30;;;;;;;5.47;2.40;;;;;;;20.31;37.68;102084.31;5008233;28;20034;-75
2023/06/04 08:12:57;;;;;;;4.30;2.30;;;;;;;20.40;36.90;102085.31;5008558;28;20028;-80
2023/06/04 08:15:23;;;;;;;5.97;2.10;;;;;;;20.67;37.93;102073.78;5009820;28;20105;-78
2023/06/04 08:17:48;;;;;;;3.13;2.20;;;;;;;20.96;37.68;102083.31;5009212;28;20113;-77
2023/06/04 08:20:14;;;;;;;3.30;2.20;;;;;;;21.08;36.38;102075.91;5009891;28;20025;-78
2023/06/04 08:22:40;;;;;;;3.25;2.22;;;;;;;21.34;36.23;102078.72;5008563;28;20460;-78
2023/06/04 08:25:08;;;;;;;5.57;2.50;;;;;;;21.49;35.91;102081.69;5008696;28;20030;-78
2023/06/04 08:27:34;;;;;;;2.53;2.00;;;;;;;21.83;34.11;102077.25;4990779;28;20050;-74
2023/06/04 08:30:00;;;;;;;5.75;2.10;;;;;;;22.09;34.65;102084.50;4989029;28;20521;-78
2023/06/04 08:32:25;;;;;;;3.50;2.40;;;;;;;21.90;33.32;102085.50;4990067;28;20034;-78
2023/06/04 08:34:51;;;;;;;4.63;2.28;;;;;;;22.09;33.95;102087.19;4990315;28;20069;-73
2023/06/04 08:37:19;;;;;;;5.93;2.13;;;;;;;22.22;33.52;102081.38;4992710;28;20081;-73
2023/06/04 08:39:44;;;;;;;3.80;2.03;;;;;;;22.30;32.52;102076.91;4997742;28;20022;-76
2023/06/04 08:42:19;;;;;;;2.53;1.60;;;;;;;22.45;32.53;102080.69;4988785;28;20519;-74
2023/06/04 08:44:47;;;;;;;6.47;2.15;;;;;;;22.62;31.98;102070.00;4989582;28;20058;-74
2023/06/04 08:47:15;;;;;;;5.70;2.10;;;;;;;22.95;32.90;102076.34;4988504;28;20081;-74
2023/06/04 08:49:44;;;;;;;4.13;2.00;;;;;;;22.94;31.50;102071.97;5009057;28;20467;-74
2023/06/04 08:52:10;;;;;;;3.90;1.90;;;;;;;22.84;31.55;102080.19;5008786;28;20026;-77
2023/06/04 08:54:35;;;;;;;4.93;1.90;;;;;;;22.81;30.98;102069.75;5007084;28;20045;-77
2023/06/04 08:57:01;;;;;;;3.03;1.90;;;;;;;22.92;31.56;102077.50;5027720;28;20017;-78
2023/06/04 08:59:27;;;;;;;3.03;1.77;;;;;;;23.08;29.68;102076.69;5029867;28;20458;-76
2023/06/04 09:01:56;;;;;;;4.72;1.55;;;;;;;22.92;29.22;102074.81;5029257;28;20025;-77
2023/06/04 09:04:22;;;;;;;2.97;1.60;;;;;;;22.87;29.26;102084.38;5005983;28;20105;-74
2023/06/04 09:06:48;;;;;;;1.70;1.42;;;;;;;23.06;29.45;102087.59;4988661;28;20632;-78
2023/06/04 09:09:15;;;;;;;6.60;1.52;;;;;;;23.27;28.78;102080.94;5004218;28;20085;-73
2023/06/04 09:11:52;;;;;;;1.98;1.23;;;;;;;23.19;29.01;102092.47;4989409;28;20033;-74
2023/06/04 09:14:18;;;;;;;3.00;1.30;;;;;;;23.12;28.58;102084.25;4988249;28;20024;-73
2023/06/04 09:16:49;;;;;;;11.85;1.50;;;;;;;23.31;29.64;102082.28;4989741;28;20026;-77
2023/06/04 09:19:15;;;;;;;3.05;1.40;;;;;;;23.31;28.56;102088.47;5004856;28;20417;-75
2023/06/04 09:21:57;;;;;;;4.07;1.40;;;;;;;23.34;29.16;102085.47;4994314;28;20022;-77
2023/06/04 09:24:24;;;;;;;2.22;1.25;;;;;;;23.32;28.52;102078.56;4993273;28;20475;-73
2023/06/04 09:26:50;;;;;;;4.80;1.15;;;;;;;23.32;27.75;102079.41;4991882;28;20379;-78
2023/06/04 09:29:16;;;;;;;5.05;1.35;;;;;;;23.43;27.74;102089.00;4992645;28;20026;-74
2023/06/04 09:31:46;;;;;;;3.63;1.40;;;;;;;22.91;26.42;102086.56;4993294;28;20026;-74
2023/06/04 09:34:11;;;;;;;1.90;1.25;;;;;;;22.93;26.67;102078.34;4993068;28;20049;-76
2023/06/04 09:36:37;;;;;;;2.35;1.17;;;;;;;22.87;26.94;102100.47;4992164;28;20113;-76
2023/06/04 09:39:04;;;;;;;3.42;1.40;;;;;;;22.77;27.25;102079.94;4996677;28;20022;-78
2023/06/04 09:41:30;;;;;;;6.13;1.50;;;;;;;22.63;26.82;102080.56;5008673;28;20026;-77
2023/06/04 09:44:03;;;;;;;2.70;1.27;;;;;;;22.79;27.72;102082.44;5007117;28;20053;-77
2023/06/04 09:46:29;;;;;;;5.20;1.35;;;;;;;22.60;25.86;102099.66;4993033;28;20129;-77
2023/06/04 09:49:02;;;;;;;4.10;1.10;;;;;;;22.65;27.44;102085.78;4990739;28;20023;-75
2023/06/04 09:51:28;;;;;;;4.45;1.17;;;;;;;22.68;27.05;102086.28;4993392;28;20022;-77
2023/06/04 09:53:58;;;;;;;1.23;1.10;;;;;;;22.61;26.97;102084.41;4993936;28;20026;-78
2023/06/04 09:56:24;;;;;;;4.03;1.20;;;;;;;22.48;26.92;102095.59;5019842;28;20025;-76
2023/06/04 09:58:53;;;;;;;1.80;1.20;;;;;;;22.70;28.02;102083.44;5031707;28;20037;-74
2023/06/04 10:01:20;;;;;;;5.10;1.35;;;;;;;23.07;28.89;102075.84;5030062;28;20821;-74
2023/06/04 10:03:48;;;;;;;3.22;1.30;;;;;;;23.10;28.41;102066.63;5030966;28;20025;-78
2023/06/04 10:06:16;;;;;;;9.25;1.30;;;;;;;23.46;27.92;102067.16;5029707;28;20056;-78
2023/06/04 10:08:45;;;;;;;1.95;1.10;;;;;;;23.56;27.59;102062.47;5032203;28;20025;-79
2023/06/04 10:11:11;;;;;;;2.17;1.05;;;;;;;23.62;27.14;102067.19;5016596;28;20026;-75
2023/06/04 10:14:02;;;;;;;1.48;1.23;;;;;;;23.60;27.50;102079.94;4992019;28;20041;-75
2023/06/04 10:16:30;;;;;;;3.28;1.10;;;;;;;23.50;27.24;102081.94;4992445;28;20372;-79
2023/06/04 10:18:56;;;;;;;4.78;1.33;;;;;;;23.78;27.08;102073.56;4991067;28;20026;-74
2023/06/04 10:21:23;;;;;;;3.22;1.08;;;;;;;23.98;26.67;102069.47;4991623;28;20106;-80
2023/06/04 10:23:50;;;;;;;2.65;1.20;;;;;;;24.13;27.02;102066.94;4991475;28;20416;-78
2023/06/04 10:26:16;;;;;;;1.95;1.20;;;;;;;24.36;26.88;102067.88;5032877;28;20466;-79
2023/06/04 10:28:42;;;;;;;4.03;1.30;;;;;;;24.20;25.75;102063.38;5000424;28;20037;-74
2023/06/04 10:31:11;;;;;;;1.42;1.00;;;;;;;24.38;27.26;102072.06;4990833;28;20026;-73
2023/06/04 10:33:37;;;;;;;3.40;1.40;;;;;;;24.10;26.85;102062.75;4992454;28;20084;-74
2023/06/04 10:36:18;;;;;;;1.77;1.10;;;;;;;24.10;27.18;102073.50;5006634;28;20022;-74
2023/06/04 10:38:54;;;;;;;4.38;2.17;;;;;;;24.17;27.27;102063.72;4991966;28;20084;-78
2023/06/04 10:41:21;;;;;;;2.38;1.30;;;;;;;24.14;25.98;102069.44;4992441;28;20338;-74
2023/06/04 10:43:51;;;;;;;4.75;1.50;;;;;;;23.99;26.30;102065.78;4994997;28;20045;-74
2023/06/04 10:46:18;;;;;;;2.08;1.02;;;;;;;24.07;26.80;102068.47;4991429;28;20035;-74
2023/06/04 10:48:52;;;;;;;4.40;1.10;;;;;;;23.96;25.75;102072.34;4993110;28;20027;-78
2023/06/04 10:51:32;;;;;;;1.90;0.90;;;;;;;23.91;26.32;102066.63;4991289;28;20054;-73
2023/06/04 10:53:59;;;;;;;1.48;0.90;;;;;;;24.07;25.60;102071.16;4991018;28;20157;-79
2023/06/04 10:56:26;;;;;;;4.00;1.00;;;;;;;24.36;25.82;102067.88;5035548;28;20014;-78
2023/06/04 10:58:52;;;;;;;3.05;1.00;;;;;;;24.45;25.32;102069.56;5030570;28;20029;-78
2023/06/04 11:01:28;;;;;;;4.68;1.10;;;;;;;24.22;25.94;102065.88;4993981;28;20026;-78
2023/06/04 11:03:55;;;;;;;2.65;1.15;;;;;;;24.36;26.21;102070.56;4991181;28;20026;-78
2023/06/04 11:06:22;;;;;;;3.50;1.05;;;;;;;24.08;25.89;102069.31;4990350;28;20026;-78
2023/06/04 11:08:47;;;;;;;3.35;1.23;;;;;;;24.23;25.95;102063.03;4991494;28;20390;-80
2023/06/04 11:11:16;;;;;;;5.18;1.10;;;;;;;24.37;26.76;102061.47;5006901;28;20033;-78
2023/06/04 11:13:42;;;;;;;5.38;1.17;;;;;;;24.49;27.14;102068.19;5006385;28;20027;-78
2023/06/04 11:16:18;;;;;;;1.45;1.00;;;;;;;24.79;26.52;102053.03;4994795;28;20022;-78
2023/06/04 11:18:54;;;;;;;3.90;1.10;;;;;;;24.69;26.80;102052.44;4991203;28;20399;-77
2023/06/04 11:21:19;;;;;;;1.40;0.90;;;;;;;24.69;25.31;102050.56;4989790;28;20572;-76
2023/06/04 11:23:45;;;;;;;5.55;1.08;;;;;;;24.65;25.34;102056.50;5006233;28;20050;-72